Elliyedinci Alay — TCZX9 — position and weather

sailwx.info

Track history (hours):
 
Tides and Currents Weather Stations Pressure Air Temp Water Temp Dewpoint Dewpoint Depression Visibility Wind Speed Wind Dir Waves Ship Positions

Elliyedinci Alay

Last reported at 2017-Oct-21 23:18 UTC. Time now 2017-Nov-21 17:37 UTC.
Position N 40°23' E 026°40'.
Warning: this ship's position is 30 days out of date.

Length 90 m.

Type: . MMSI: 271042595.

Date/timePositionNaut miles runAvg speedWind from/ knotsBaromVisibWave heightAir tempDewpointWater temp
2017-Oct-21 23:18N 40°23' E 026°40'1 0.0
2017-Oct-20 15:41N 40°23' E 026°41'  
2017-Oct-15 12:12N 40°07' E 026°12'313.0
2017-Oct-15 12:00N 40°10' E 026°13'4 3.9
2017-Oct-15 10:59N 40°13' E 026°11'511.6
2017-Oct-15 10:30N 40°13' E 026°04'1 0.0
2017-Oct-14 19:03N 40°13' E 026°03'111.3
2017-Oct-14 18:58N 40°13' E 026°04'2 1.1
2017-Oct-14 16:45N 40°13' E 026°07'311.7
2017-Oct-14 16:29N 40°13' E 026°03'1 0.1
2017-Oct-14 07:06N 40°13' E 026°02'111.2
2017-Oct-14 07:00N 40°13' E 026°04'3 0.2
2017-Oct-13 15:09N 40°14' E 026°00'210.9
2017-Oct-13 15:00N 40°14' E 026°02'1 0.5
2017-Oct-13 12:31N 40°13' E 026°04'012.2
2017-Oct-13 12:30N 40°13' E 026°03'1 0.6
2017-Oct-13 11:14N 40°13' E 026°02'3 1.3
2017-Oct-13 08:41N 40°13' E 026°07'312.1
2017-Oct-13 08:29N 40°13' E 026°03'1 1.1
2017-Oct-13 07:07N 40°13' E 026°01'111.4
2017-Oct-13 07:00N 40°13' E 026°03'5 2.3
2017-Oct-13 04:51N 40°12' E 026°09'412.1
2017-Oct-13 04:31N 40°13' E 026°04'2 0.2
2017-Oct-12 19:11N 40°13' E 026°01'211.6
2017-Oct-12 19:01N 40°13' E 026°04'3 1.4
2017-Oct-12 16:49N 40°13' E 026°08'4 1.9
2017-Oct-12 14:56N 40°13' E 026°03'0 0.1
2017-Oct-12 12:31N 40°13' E 026°03'3 1.9
2017-Oct-12 11:11N 40°14' E 026°00'211.3
2017-Oct-12 10:59N 40°14' E 026°03'3 1.3
2017-Oct-12 08:45N 40°13' E 026°07'312.3
2017-Oct-12 08:30N 40°13' E 026°03'1 0.7
2017-Oct-12 07:02N 40°13' E 026°01'111.4
2017-Oct-12 06:56N 40°13' E 026°03'5 2.2
2017-Oct-12 04:51N 40°12' E 026°09'411.9
2017-Oct-12 04:30N 40°13' E 026°04'  
Track history (hours):
 
Tides and Currents Weather Stations Pressure Air Temp Water Temp Dewpoint Dewpoint Depression Visibility Wind Speed Wind Dir Waves Ship Positions

Elliyedinci Alay

Last reported at 2017-Oct-21 23:18 UTC. Time now 2017-Nov-21 17:37 UTC.
Position N 40°23' E 026°40'.
Warning: this ship's position is 30 days out of date.

Length 90 m.

Type: . MMSI: 271042595.

Date/timePositionNaut miles runAvg speedWind from/ knotsBaromVisibWave heightAir tempDewpointWater temp
2017-Oct-21 23:18N 40°23' E 026°40'1 0.0
2017-Oct-20 15:41N 40°23' E 026°41'  
2017-Oct-15 12:12N 40°07' E 026°12'313.0
2017-Oct-15 12:00N 40°10' E 026°13'4 3.9
2017-Oct-15 10:59N 40°13' E 026°11'511.6
2017-Oct-15 10:30N 40°13' E 026°04'1 0.0
2017-Oct-14 19:03N 40°13' E 026°03'111.3
2017-Oct-14 18:58N 40°13' E 026°04'2 1.1
2017-Oct-14 16:45N 40°13' E 026°07'311.7
2017-Oct-14 16:29N 40°13' E 026°03'1 0.1
2017-Oct-14 07:06N 40°13' E 026°02'111.2
2017-Oct-14 07:00N 40°13' E 026°04'3 0.2
2017-Oct-13 15:09N 40°14' E 026°00'210.9
2017-Oct-13 15:00N 40°14' E 026°02'1 0.5
2017-Oct-13 12:31N 40°13' E 026°04'012.2
2017-Oct-13 12:30N 40°13' E 026°03'1 0.6
2017-Oct-13 11:14N 40°13' E 026°02'3 1.3
2017-Oct-13 08:41N 40°13' E 026°07'312.1
2017-Oct-13 08:29N 40°13' E 026°03'1 1.1
2017-Oct-13 07:07N 40°13' E 026°01'111.4
2017-Oct-13 07:00N 40°13' E 026°03'5 2.3
2017-Oct-13 04:51N 40°12' E 026°09'412.1
2017-Oct-13 04:31N 40°13' E 026°04'2 0.2
2017-Oct-12 19:11N 40°13' E 026°01'211.6
2017-Oct-12 19:01N 40°13' E 026°04'3 1.4
2017-Oct-12 16:49N 40°13' E 026°08'4 1.9
2017-Oct-12 14:56N 40°13' E 026°03'0 0.1
2017-Oct-12 12:31N 40°13' E 026°03'3 1.9
2017-Oct-12 11:11N 40°14' E 026°00'211.3
2017-Oct-12 10:59N 40°14' E 026°03'3 1.3
2017-Oct-12 08:45N 40°13' E 026°07'312.3
2017-Oct-12 08:30N 40°13' E 026°03'1 0.7
2017-Oct-12 07:02N 40°13' E 026°01'111.4
2017-Oct-12 06:56N 40°13' E 026°03'5 2.2
2017-Oct-12 04:51N 40°12' E 026°09'411.9
2017-Oct-12 04:30N 40°13' E 026°04'  

Dump ship's entire track history